createdAt,value
2018-09-17T00:00:10.910Z,54.4
2018-09-17T00:01:01.002Z,54.4
2018-09-17T00:01:51.358Z,54.4
2018-09-17T00:02:41.731Z,54.4
2018-09-17T00:03:31.442Z,54.4
2018-09-17T00:04:21.513Z,54.4
2018-09-17T00:05:11.607Z,54.4
2018-09-17T00:06:01.652Z,54.4
2018-09-17T00:06:52.292Z,54.4
2018-09-17T00:07:42.619Z,54.3
2018-09-17T00:08:32.122Z,54.3
2018-09-17T00:09:22.191Z,54.3
2018-09-17T00:10:12.064Z,54.3
2018-09-17T00:11:02.027Z,54.3
2018-09-17T00:11:52.087Z,54.3
2018-09-17T00:12:42.436Z,54.3
2018-09-17T00:13:32.826Z,54.3
2018-09-17T00:14:22.279Z,54.3
2018-09-17T00:15:13.499Z,54.3
2018-09-17T00:16:02.397Z,54.3
2018-09-17T00:16:53.028Z,54.3
2018-09-17T00:17:42.865Z,54.3
2018-09-17T00:18:32.319Z,54.2
2018-09-17T00:19:22.922Z,54.3
2018-09-17T00:20:12.719Z,54.2
2018-09-17T00:21:03.059Z,54.2
2018-09-17T00:21:53.146Z,54.2
2018-09-17T00:22:42.896Z,54.2
2018-09-17T00:23:33.523Z,54.2
2018-09-17T00:24:23.609Z,54.2
2018-09-17T00:25:13.651Z,54.1
2018-09-17T00:26:03.148Z,54.1
2018-09-17T00:26:53.488Z,54.1
2018-09-17T00:27:43.266Z,54.1
2018-09-17T00:28:33.968Z,54.1
2018-09-17T00:29:23.207Z,54.1
2018-09-17T00:30:13.720Z,54.1
2018-09-17T00:31:03.796Z,54.1
2018-09-17T00:31:53.567Z,54.1
2018-09-17T00:32:43.907Z,54.1
2018-09-17T00:33:33.435Z,54
2018-09-17T00:34:24.126Z,54
2018-09-17T00:35:14.142Z,54
2018-09-17T00:36:03.930Z,54
2018-09-17T00:36:54.515Z,54
2018-09-17T00:56:28.813Z,53.8
2018-09-17T00:57:18.106Z,53.8
2018-09-17T00:58:08.747Z,53.8
2018-09-17T00:58:58.515Z,53.8
2018-09-17T00:59:48.618Z,53.8
2018-09-17T01:00:38.929Z,53.8
2018-09-17T01:01:28.955Z,53.8
2018-09-17T01:02:18.753Z,53.7
2018-09-17T01:03:08.814Z,53.7
2018-09-17T01:03:58.873Z,53.7
2018-09-17T01:04:48.966Z,53.7
2018-09-17T01:05:38.716Z,53.7
2018-09-17T01:06:29.073Z,53.7
2018-09-17T01:07:19.413Z,53.7
2018-09-17T01:08:10.053Z,53.6
2018-09-17T01:08:59.528Z,53.6
2018-09-17T01:09:49.604Z,53.6
2018-09-17T01:10:39.663Z,53.6
2018-09-17T01:11:29.927Z,53.6
2018-09-17T01:12:20.145Z,53.6
2018-09-17T01:13:09.828Z,53.6
2018-09-17T01:13:59.037Z,53.6
2018-09-17T01:14:50.240Z,53.6
2018-09-17T01:15:39.730Z,53.6
2018-09-17T01:16:29.535Z,53.6
2018-09-17T01:17:20.172Z,53.6
2018-09-17T01:18:10.184Z,53.6
2018-09-17T01:19:00.300Z,53.6
2018-09-17T01:19:50.022Z,53.5
2018-09-17T01:20:40.212Z,53.5
2018-09-17T01:21:30.668Z,53.5
2018-09-17T01:22:20.545Z,53.5
2018-09-17T01:23:11.009Z,53.5
2018-09-17T01:24:00.637Z,53.4
2018-09-17T01:24:51.022Z,53.4
2018-09-17T01:25:40.749Z,53.4
2018-09-17T01:26:30.817Z,53.4
2018-09-17T01:27:20.857Z,53.4
2018-09-17T01:28:11.537Z,53.4
2018-09-17T01:29:01.296Z,53.4
2018-09-17T01:29:51.060Z,53.4
2018-09-17T01:30:41.941Z,53.4
2018-09-17T01:31:31.197Z,53.4
2018-09-17T01:32:21.220Z,53.4
2018-09-17T01:33:11.587Z,53.4
2018-09-17T01:34:01.951Z,53.4
2018-09-17T01:34:51.763Z,53.4
2018-09-17T01:35:41.209Z,53.3
2018-09-17T01:36:31.567Z,53.3
2018-09-17T01:37:20.864Z,53.3
2018-09-17T01:38:11.383Z,53.3
2018-09-17T01:39:02.027Z,53.3
2018-09-17T01:39:51.820Z,53.3
2018-09-17T01:40:42.161Z,53.3
2018-09-17T01:41:31.938Z,53.3
2018-09-17T01:42:22.229Z,53.3
2018-09-17T01:43:12.055Z,53.3
2018-09-17T01:44:02.438Z,53.3
2018-09-17T01:44:51.618Z,53.3
2018-09-17T01:45:42.250Z,53.3
2018-09-17T01:46:32.334Z,53.3
2018-09-17T01:47:22.732Z,53.2
2018-09-17T01:48:12.469Z,53.2
2018-09-17T01:49:02.803Z,53.2
2018-09-17T01:49:52.840Z,53.2
2018-09-17T01:50:42.630Z,53.2
2018-09-17T01:51:32.955Z,53.2
2018-09-17T01:52:23.323Z,53.2
2018-09-17T01:53:12.807Z,53.2
2018-09-17T01:54:03.448Z,53.1
2018-09-17T01:54:53.250Z,53.1
2018-09-17T01:55:42.440Z,53.1
2018-09-17T01:56:32.795Z,53.1
2018-09-17T01:57:22.375Z,53.1
2018-09-17T01:58:13.159Z,53.1
2018-09-17T01:59:02.950Z,53.1
2018-09-17T01:59:53.260Z,53.1
2018-09-17T02:00:43.059Z,53.1
2018-09-17T02:01:33.444Z,53.1
2018-09-17T02:02:23.795Z,53.1
2018-09-17T02:03:13.650Z,53
2018-09-17T02:04:03.609Z,53
2018-09-17T02:04:53.969Z,53
2018-09-17T02:05:44.034Z,53
2018-09-17T02:06:34.089Z,53
2018-09-17T02:07:23.385Z,53
2018-09-17T02:08:14.007Z,53
2018-09-17T02:09:04.514Z,53
2018-09-17T02:09:54.262Z,52.9
2018-09-17T02:10:43.570Z,52.9
2018-09-17T02:11:34.194Z,52.9
2018-09-17T02:12:24.569Z,52.9
2018-09-17T02:13:14.381Z,52.9
2018-09-17T02:14:04.084Z,52.9
2018-09-17T02:14:54.333Z,52.9
2018-09-17T02:15:44.516Z,52.9
2018-09-17T02:16:34.539Z,52.9
2018-09-17T02:17:24.642Z,52.9
2018-09-17T02:18:14.676Z,52.9
2018-09-17T02:19:04.748Z,52.9
2018-09-17T02:19:55.138Z,52.9
2018-09-17T02:20:44.864Z,52.8
2018-09-17T02:21:34.921Z,52.9
2018-09-17T02:22:24.978Z,52.8
2018-09-17T02:23:14.509Z,52.8
2018-09-17T02:24:04.933Z,52.8
2018-09-17T02:24:55.459Z,52.8
2018-09-17T02:25:45.505Z,52.8
2018-09-17T02:26:35.598Z,52.8
2018-09-17T02:27:25.349Z,52.8
2018-09-17T02:28:15.418Z,52.8
2018-09-17T02:29:05.730Z,52.8
2018-09-17T02:29:55.853Z,52.8
2018-09-17T02:31:35.731Z,52.8
2018-09-17T02:32:25.756Z,52.7
2018-09-17T02:33:15.801Z,52.8
2018-09-17T02:34:06.390Z,52.7
2018-09-17T02:34:55.929Z,52.7
2018-09-17T02:35:45.683Z,52.7
2018-09-17T02:36:35.810Z,52.7
2018-09-17T02:37:26.114Z,52.7
2018-09-17T02:38:16.174Z,52.7
2018-09-17T02:39:06.492Z,52.6
2018-09-17T02:39:56.327Z,52.6
2018-09-17T02:40:46.354Z,52.6
2018-09-17T02:41:36.160Z,52.6
2018-09-17T02:42:26.804Z,52.6
2018-09-17T02:43:16.280Z,52.6
2018-09-17T02:44:06.856Z,52.6
2018-09-17T02:44:56.737Z,52.6
2018-09-17T02:45:46.465Z,52.6
2018-09-17T02:46:36.516Z,52.6
2018-09-17T02:47:26.594Z,52.6
2018-09-17T02:48:17.460Z,52.6
2018-09-17T02:49:07.292Z,52.6
2018-09-17T02:49:57.137Z,52.6
2018-09-17T02:50:47.427Z,52.5
2018-09-17T02:51:37.186Z,52.5
2018-09-17T02:52:27.527Z,52.5
2018-09-17T02:53:17.582Z,52.5
2018-09-17T02:54:07.364Z,52.5
2018-09-17T02:54:57.698Z,52.5
2018-09-17T02:55:47.549Z,52.4
2018-09-17T02:56:37.839Z,52.4
2018-09-17T02:57:27.612Z,52.4
2018-09-17T02:58:17.976Z,52.4
2018-09-17T02:59:08.673Z,52.4
2018-09-17T02:59:58.083Z,52.4
2018-09-17T03:00:47.287Z,52.4
2018-09-17T03:06:38.578Z,52.3
2018-09-17T03:09:08.187Z,52.3
2018-09-17T03:09:58.569Z,52.3
2018-09-17T03:10:48.586Z,52.3
2018-09-17T03:11:38.625Z,52.3
2018-09-17T03:12:28.748Z,52.3
2018-09-17T03:13:19.061Z,52.3
2018-09-17T03:14:09.145Z,52.3
2018-09-17T03:14:59.251Z,52.3
2018-09-17T03:15:49.008Z,52.3
2018-09-17T03:16:39.287Z,52.3
2018-09-17T03:17:29.150Z,52.3
2018-09-17T03:18:19.450Z,52.3
2018-09-17T03:19:09.493Z,52.3
2018-09-17T03:19:59.050Z,52.3
2018-09-17T03:20:49.332Z,52.3
2018-09-17T03:21:39.467Z,52.2
2018-09-17T03:22:29.750Z,52.1
2018-09-17T03:23:19.550Z,52.1
2018-09-17T03:24:09.867Z,52.1
2018-09-17T03:24:59.977Z,52.1
2018-09-17T03:25:49.500Z,52.1
2018-09-17T03:26:40.093Z,52.1
2018-09-17T03:27:30.127Z,52
2018-09-17T03:28:19.914Z,52
2018-09-17T03:29:10.275Z,52
2018-09-17T03:30:00.333Z,52
2018-09-17T03:30:49.767Z,52
2018-09-17T03:32:30.226Z,51.9
2018-09-17T03:33:20.562Z,51.9
2018-09-17T03:34:10.648Z,51.9
2018-09-17T03:35:00.134Z,51.9
2018-09-17T03:35:50.330Z,51.8
2018-09-17T03:36:40.536Z,51.8
2018-09-17T03:37:30.909Z,51.9
2018-09-17T03:38:20.354Z,51.8
2018-09-17T03:39:10.983Z,51.8
2018-09-17T03:40:01.069Z,51.8
2018-09-17T03:40:50.556Z,51.8
2018-09-17T03:41:40.893Z,51.8
2018-09-17T03:42:31.057Z,51.8
2018-09-17T03:43:21.307Z,51.8
2018-09-17T03:44:10.876Z,51.8
2018-09-17T03:45:01.446Z,51.8
2018-09-17T03:45:50.673Z,51.8
2018-09-17T03:46:42.354Z,51.8
2018-09-17T03:47:31.532Z,51.7
2018-09-17T03:48:21.761Z,51.7
2018-09-17T03:49:11.986Z,51.7
2018-09-17T03:50:01.595Z,51.7
2018-09-17T03:50:51.293Z,51.7
2018-09-17T03:51:41.973Z,51.7
2018-09-17T03:52:31.436Z,51.6
2018-09-17T05:25:24.470Z,50.6
2018-09-17T05:26:13.752Z,50.6
2018-09-17T05:27:04.096Z,50.6
2018-09-17T05:27:53.870Z,50.6
2018-09-17T05:28:43.690Z,50.6
2018-09-17T05:29:34.020Z,50.6
2018-09-17T05:30:24.373Z,50.6
2018-09-17T05:31:14.400Z,50.6
2018-09-17T05:32:04.447Z,50.6
2018-09-17T05:32:54.297Z,50.6
2018-09-17T05:33:44.020Z,50.6
2018-09-17T05:34:33.611Z,50.6
2018-09-17T05:35:24.137Z,50.5
2018-09-17T05:36:14.777Z,50.5
2018-09-17T05:37:04.619Z,50.5
2018-09-17T05:37:54.610Z,50.5
2018-09-17T05:38:44.629Z,50.5
2018-09-17T05:39:34.878Z,50.5
2018-09-17T05:40:25.072Z,50.5
2018-09-17T05:41:14.838Z,50.5
2018-09-17T05:42:04.930Z,50.4
2018-09-17T05:42:55.259Z,50.4
2018-09-17T05:43:45.317Z,50.4
2018-09-17T05:44:36.573Z,50.4
2018-09-17T05:45:25.282Z,50.4
2018-09-17T05:46:15.578Z,50.4
2018-09-17T05:47:05.646Z,50.4
2018-09-17T05:47:54.497Z,50.4
2018-09-17T05:48:45.660Z,50.4
2018-09-17T05:49:35.499Z,50.4
2018-09-17T05:50:25.875Z,50.4
2018-09-17T05:51:15.627Z,50.4
2018-09-17T05:52:05.790Z,50.4
2018-09-17T05:52:55.565Z,50.4
2018-09-17T05:53:46.101Z,50.4
2018-09-17T05:54:35.915Z,50.3
2018-09-17T05:55:26.256Z,50.3
2018-09-17T05:56:16.332Z,50.3
2018-09-17T05:57:06.355Z,50.3
2018-09-17T05:57:56.134Z,50.3
2018-09-17T05:58:46.492Z,50.3
2018-09-17T05:59:36.390Z,50.3
2018-09-17T06:00:26.296Z,50.3
2018-09-17T06:01:15.784Z,50.3
2018-09-17T06:02:06.971Z,50.3
2018-09-17T06:02:56.773Z,50.3
2018-09-17T06:03:46.560Z,50.3
2018-09-17T06:04:37.063Z,50.3
2018-09-17T06:05:26.865Z,50.2
2018-09-17T06:06:16.702Z,50.2
2018-09-17T06:07:08.222Z,50.2
2018-09-17T06:07:57.164Z,50.2
2018-09-17T06:08:47.217Z,50.2
2018-09-17T06:09:37.583Z,50.2
2018-09-17T06:10:27.374Z,50.1
2018-09-17T06:11:17.529Z,50.1
2018-09-17T06:12:07.484Z,50.1
2018-09-17T06:12:57.276Z,50.1
2018-09-17T06:13:47.979Z,50.1
2018-09-17T06:14:37.826Z,50.1
2018-09-17T06:15:27.717Z,50.1
2018-09-17T06:16:18.076Z,50.1
2018-09-17T06:17:07.099Z,50.1
2018-09-17T06:17:57.153Z,50.1
2018-09-17T06:18:47.139Z,50.1
2018-09-17T06:19:36.699Z,50.1
2018-09-17T06:20:27.348Z,50.1
2018-09-17T06:21:17.871Z,50.1
2018-09-17T06:22:08.223Z,50.1
2018-09-17T06:22:58.036Z,50
2018-09-17T06:23:48.053Z,50
2018-09-17T06:24:37.863Z,50
2018-09-17T06:25:27.953Z,50
2018-09-17T06:26:18.243Z,50
2018-09-17T06:27:08.817Z,50
2018-09-17T06:27:58.845Z,50
2018-09-17T06:28:48.601Z,50
2018-09-17T06:29:37.963Z,49.9
2018-09-17T06:30:28.868Z,49.9
2018-09-17T06:31:18.664Z,49.9
2018-09-17T06:32:08.981Z,49.9
2018-09-17T06:32:58.490Z,49.9
2018-09-17T06:33:49.123Z,49.9
2018-09-17T06:34:38.880Z,49.9
2018-09-17T06:35:29.260Z,49.9
2018-09-17T06:36:19.410Z,49.9
2018-09-17T06:37:09.097Z,49.9
2018-09-17T06:37:58.875Z,49.9
2018-09-17T06:38:49.178Z,49.9
2018-09-17T06:39:39.245Z,49.9
2018-09-17T06:40:29.325Z,49.9
2018-09-17T06:41:19.690Z,49.9
2018-09-17T06:42:09.683Z,49.8
2018-09-17T06:43:00.064Z,49.8
2018-09-17T06:43:49.839Z,49.8
2018-09-17T06:44:39.334Z,49.8
2018-09-17T06:45:29.954Z,49.8
2018-09-17T06:46:20.090Z,49.8
2018-09-17T06:47:08.988Z,49.8
2018-09-17T06:48:00.497Z,49.8
2018-09-17T06:48:49.707Z,49.8
2018-09-17T06:49:39.738Z,49.8
2018-09-17T06:50:30.102Z,49.8
2018-09-17T06:51:20.594Z,49.8
2018-09-17T06:52:10.620Z,49.8
2018-09-17T06:53:00.612Z,49.8
2018-09-17T06:53:50.738Z,49.7
2018-09-17T06:54:40.117Z,49.7
2018-09-17T06:55:30.704Z,49.7
2018-09-17T06:56:20.758Z,49.7
2018-09-17T06:57:10.814Z,49.7
2018-09-17T06:58:00.927Z,49.7
2018-09-17T06:58:50.718Z,49.7
2018-09-17T06:59:40.168Z,49.7
2018-09-17T07:00:31.032Z,49.6
2018-09-17T07:01:21.310Z,49.6
2018-09-17T07:02:10.946Z,49.6
2018-09-17T07:03:01.275Z,49.6
2018-09-17T07:03:51.332Z,49.6
2018-09-17T07:04:41.125Z,49.6
2018-09-17T07:05:31.756Z,49.6
2018-09-17T07:06:21.773Z,49.6
2018-09-17T07:07:11.037Z,49.6
2018-09-17T07:08:01.382Z,49.6
2018-09-17T07:08:51.430Z,49.6
2018-09-17T07:09:41.239Z,49.6
2018-09-17T07:10:31.076Z,49.6
2018-09-17T07:11:21.325Z,49.6
2018-09-17T07:12:11.964Z,49.6
2018-09-17T07:13:02.031Z,49.5
2018-09-17T07:13:51.834Z,49.6
2018-09-17T07:14:42.124Z,49.5
2018-09-17T07:15:32.079Z,49.5
2018-09-17T07:16:22.102Z,49.5
2018-09-17T07:17:12.336Z,49.5
2018-09-17T07:18:02.107Z,49.5
2018-09-17T07:18:52.196Z,49.5
2018-09-17T07:19:42.529Z,49.4
2018-09-17T07:20:31.996Z,49.4
2018-09-17T07:21:22.369Z,49.4
2018-09-17T07:22:12.151Z,49.4
2018-09-17T07:23:02.476Z,49.4
2018-09-17T07:23:53.131Z,49.4
2018-09-17T07:24:42.595Z,49.4
2018-09-17T07:25:32.968Z,49.4
2018-09-17T07:26:22.751Z,49.4
2018-09-17T07:27:12.864Z,49.4
2018-09-17T07:28:02.881Z,49.4
2018-09-17T07:28:52.943Z,49.4
2018-09-17T07:29:43.280Z,49.4
2018-09-17T07:30:33.374Z,49.4
2018-09-17T07:31:23.405Z,49.4
2018-09-17T07:32:12.908Z,49.4
2018-09-17T07:33:02.981Z,49.4
2018-09-17T07:33:53.593Z,49.3
2018-09-17T07:34:43.418Z,49.3
2018-09-17T07:36:25.239Z,49.3
2018-09-17T07:37:13.843Z,49.3
2018-09-17T07:38:02.564Z,49.3
2018-09-17T07:38:53.982Z,49.3
2018-09-17T07:39:43.738Z,49.3
2018-09-17T07:40:34.189Z,49.3
2018-09-17T07:41:24.141Z,49.3
2018-09-17T07:42:14.358Z,49.3
2018-09-17T07:43:04.251Z,49.3
2018-09-17T07:43:54.102Z,49.3
2018-09-17T07:44:43.925Z,49.3
2018-09-17T07:45:34.196Z,49.2
2018-09-17T07:46:23.767Z,49.3
2018-09-17T07:47:14.019Z,49.2
2018-09-17T07:48:04.662Z,49.2
2018-09-17T07:48:54.695Z,49.2
2018-09-17T07:49:44.502Z,49.2
2018-09-17T07:50:34.907Z,49.2
2018-09-17T07:51:24.361Z,49.2
2018-09-17T07:52:14.406Z,49.2
2018-09-17T07:53:05.045Z,49.1
2018-09-17T07:53:54.817Z,49.1
2018-09-17T07:54:44.109Z,49.1
2018-09-17T07:55:34.691Z,49.1
2018-09-17T07:56:25.043Z,49.1
2018-09-17T07:57:15.326Z,49.1
2018-09-17T07:58:05.434Z,49.1
2018-09-17T07:58:55.808Z,49.1
2018-09-17T07:59:45.515Z,49.1
2018-09-17T08:00:35.056Z,49.1
2018-09-17T08:01:25.711Z,49.1
2018-09-17T08:02:15.726Z,49.1
2018-09-17T08:03:05.896Z,49.1
2018-09-17T08:03:55.494Z,49.1
2018-09-17T08:04:45.437Z,49.1
2018-09-17T08:05:35.285Z,49.1
2018-09-17T08:06:25.927Z,49.1
2018-09-17T08:07:16.103Z,49
2018-09-17T08:08:05.880Z,49
2018-09-17T08:08:56.504Z,49
2018-09-17T08:09:46.017Z,49
2018-09-17T08:10:36.071Z,49
2018-09-17T08:11:25.890Z,49
2018-09-17T08:12:16.500Z,49
2018-09-17T08:13:06.305Z,49
2018-09-17T08:13:56.298Z,48.9
2018-09-17T08:14:46.704Z,49
2018-09-17T08:15:36.733Z,48.9
2018-09-17T08:16:26.580Z,48.9
2018-09-17T08:17:16.873Z,48.9
2018-09-17T08:18:06.388Z,48.9
2018-09-17T08:18:57.031Z,48.9
2018-09-17T08:19:47.372Z,48.9
2018-09-17T08:20:36.370Z,48.9
2018-09-17T08:21:27.167Z,48.9
2018-09-17T08:22:16.677Z,48.9
2018-09-17T08:23:06.734Z,48.9
2018-09-17T08:23:56.605Z,48.9
2018-09-17T08:24:46.920Z,48.9
2018-09-17T08:25:37.720Z,48.8
2018-09-17T08:26:27.006Z,48.9
2018-09-17T08:27:17.334Z,48.8
2018-09-17T08:28:07.387Z,48.8
2018-09-17T08:28:57.484Z,48.8
2018-09-17T08:29:47.131Z,48.8
2018-09-17T08:30:37.619Z,48.8
2018-09-17T08:31:27.404Z,48.8
2018-09-17T08:32:17.992Z,48.8
2018-09-17T08:33:07.247Z,48.8
2018-09-17T08:33:57.106Z,48.8
2018-09-17T08:34:48.297Z,48.8
2018-09-17T08:35:38.036Z,48.8
2018-09-17T08:36:28.393Z,48.8
2018-09-17T08:37:17.821Z,48.8
2018-09-17T08:38:07.671Z,48.8
2018-09-17T08:38:57.973Z,48.8
2018-09-17T08:39:49.183Z,48.7
2018-09-17T08:40:38.325Z,48.8
2018-09-17T08:41:28.621Z,48.8
2018-09-17T08:42:18.552Z,48.7
2018-09-17T08:43:08.318Z,48.7
2018-09-17T08:43:58.974Z,48.7
2018-09-17T08:44:49.215Z,48.7
2018-09-17T08:45:38.808Z,48.7
2018-09-17T08:46:28.900Z,48.7
2018-09-17T08:47:18.871Z,48.7
2018-09-17T08:48:08.906Z,48.6
2018-09-17T08:48:58.983Z,48.6
2018-09-17T08:49:49.306Z,48.6
2018-09-17T08:50:38.848Z,48.6
2018-09-17T08:51:29.447Z,48.6
2018-09-17T08:52:18.809Z,48.6
2018-09-17T08:53:09.810Z,48.6
2018-09-17T08:53:59.815Z,48.5
2018-09-17T08:54:48.947Z,48.5
2018-09-17T08:55:39.035Z,48.4
2018-09-17T08:56:29.367Z,48.4
2018-09-17T08:57:19.345Z,48.4
2018-09-17T08:58:10.491Z,48.4
2018-09-17T08:58:59.462Z,48.4
2018-09-17T08:59:50.141Z,48.4
2018-09-17T09:00:39.595Z,48.4
2018-09-17T09:01:30.245Z,48.4
2018-09-17T09:02:20.005Z,48.4
2018-09-17T09:03:10.076Z,48.4
2018-09-17T09:04:00.407Z,48.4
2018-09-17T09:04:49.919Z,48.4
2018-09-17T09:05:40.370Z,48.4
2018-09-17T09:06:30.241Z,48.5
2018-09-17T09:07:20.442Z,48.5
2018-09-17T09:08:10.267Z,48.6
2018-09-17T09:09:00.352Z,48.6
2018-09-17T09:09:50.840Z,48.6
2018-09-17T09:10:40.925Z,48.7
2018-09-17T09:11:30.444Z,48.8
2018-09-17T09:12:20.191Z,48.8
2018-09-17T09:13:11.086Z,48.8
2018-09-17T09:14:00.609Z,48.8
2018-09-17T09:14:50.389Z,48.9
2018-09-17T09:15:41.309Z,48.9
2018-09-17T09:16:31.077Z,49
2018-09-17T09:17:21.446Z,49
2018-09-17T09:18:11.186Z,49.1
2018-09-17T09:19:01.570Z,49.1
2018-09-17T09:19:51.395Z,49.1
2018-09-17T09:20:41.114Z,49.2
2018-09-17T09:21:31.411Z,49.2
2018-09-17T09:22:21.514Z,49.3
2018-09-17T09:23:11.896Z,49.3
2018-09-17T09:40:00.185Z,50.1
2018-09-17T09:40:42.748Z,50.2
2018-09-17T09:41:32.801Z,50.3
2018-09-17T09:42:22.862Z,50.3
2018-09-17T09:43:12.658Z,50.3
2018-09-17T09:44:02.980Z,50.4
2018-09-17T09:44:53.057Z,50.4
2018-09-17T09:45:44.012Z,50.4
2018-09-17T09:46:33.105Z,50.5
2018-09-17T09:47:22.722Z,50.6
2018-09-17T09:48:12.788Z,50.6
2018-09-17T09:49:02.799Z,50.7
2018-09-17T09:49:53.399Z,50.8
2018-09-17T09:50:43.479Z,50.8
2018-09-17T09:51:33.049Z,50.8
2018-09-17T09:52:22.824Z,50.9
2018-09-17T09:53:13.191Z,50.9
2018-09-17T09:54:03.482Z,50.9
2018-09-17T09:54:53.509Z,51
2018-09-17T09:55:44.069Z,51.1
2018-09-17T09:56:33.966Z,51.1
2018-09-17T09:57:23.686Z,51.1
2018-09-17T09:58:14.044Z,51.2
2018-09-17T09:59:03.033Z,51.3
2018-09-17T09:59:54.184Z,51.3
2018-09-17T10:00:44.487Z,51.4
2018-09-17T10:01:34.019Z,51.4
2018-09-17T10:02:24.394Z,51.4
2018-09-17T10:03:13.828Z,51.5
2018-09-17T10:04:04.207Z,51.6
2018-09-17T10:04:54.276Z,51.6
2018-09-17T10:05:44.158Z,51.7
2018-09-17T10:06:34.668Z,51.8
2018-09-17T10:07:24.495Z,51.8
2018-09-17T10:08:14.788Z,51.9
2018-09-17T10:09:04.590Z,51.9
2018-09-17T10:10:45.021Z,52
2018-09-17T10:11:35.097Z,52
2018-09-17T10:12:24.822Z,52.1
2018-09-17T10:13:15.176Z,52.1
2018-09-17T10:14:04.180Z,52.2
2018-09-17T10:14:55.038Z,52.3
2018-09-17T10:15:45.401Z,52.3
2018-09-17T10:18:15.328Z,52.4
2018-09-17T10:19:05.043Z,52.5
2018-09-17T10:19:55.435Z,52.6
2018-09-17T10:20:45.739Z,52.6
2018-09-17T10:21:35.812Z,52.7
2018-09-17T10:22:25.889Z,52.8
2018-09-17T10:23:15.942Z,52.8
2018-09-17T10:24:06.020Z,52.8
2018-09-17T10:24:56.064Z,52.9
2018-09-17T10:25:46.382Z,52.9
2018-09-17T10:26:35.905Z,53
2018-09-17T10:27:25.969Z,53.1
2018-09-17T10:28:16.582Z,53.1
2018-09-17T10:29:06.124Z,53.1
2018-09-17T10:29:56.834Z,53.2
2018-09-17T10:30:46.224Z,53.3
2018-09-17T10:31:36.829Z,53.3
2018-09-17T10:32:26.339Z,53.4
2018-09-17T10:33:16.150Z,53.4
2018-09-17T10:34:06.764Z,53.5
2018-09-17T10:34:56.387Z,53.5
2018-09-17T10:35:46.877Z,53.6
2018-09-17T10:36:36.132Z,53.6
2018-09-17T10:37:26.997Z,53.6
2018-09-17T10:38:16.583Z,53.7
2018-09-17T10:39:07.328Z,53.7
2018-09-17T10:39:57.216Z,53.7
2018-09-17T10:40:47.286Z,53.8
2018-09-17T10:41:37.348Z,53.8
2018-09-17T10:42:27.118Z,53.8
2018-09-17T10:43:17.181Z,53.8
2018-09-17T10:44:07.251Z,53.9
2018-09-17T10:44:57.316Z,53.9
2018-09-17T10:45:47.396Z,53.9
2018-09-17T10:46:36.970Z,54
2018-09-17T10:47:27.769Z,54
2018-09-17T10:48:17.568Z,54.1
2018-09-17T10:49:08.214Z,54.1
2018-09-17T10:49:57.711Z,54.1
2018-09-17T10:50:47.778Z,54.2
2018-09-17T10:51:37.806Z,54.3
2018-09-17T10:52:27.313Z,54.3
2018-09-17T10:53:17.651Z,54.3
2018-09-17T10:54:08.326Z,54.4
2018-09-17T10:54:58.351Z,54.4
2018-09-17T10:55:47.352Z,54.4
2018-09-17T10:56:38.505Z,54.5
2018-09-17T10:57:29.215Z,54.6
2018-09-17T10:58:18.052Z,54.6
2018-09-17T10:59:08.804Z,54.7
2018-09-17T10:59:58.492Z,54.8
2018-09-17T11:00:48.787Z,54.8
2018-09-17T11:01:38.302Z,54.8
2018-09-17T11:02:28.337Z,54.9
2018-09-17T11:03:18.689Z,54.9
2018-09-17T11:04:08.762Z,54.9
2018-09-17T11:04:58.875Z,55
2018-09-17T11:05:48.919Z,55.1
2018-09-17T11:06:39.019Z,55.1
2018-09-17T11:07:29.053Z,55.1
2018-09-17T11:08:19.295Z,55.2
2018-09-17T11:09:09.447Z,55.3
2018-09-17T11:09:59.485Z,55.3
2018-09-17T11:10:49.564Z,55.3
2018-09-17T11:11:39.644Z,55.4
2018-09-17T11:12:29.669Z,55.4
2018-09-17T11:13:19.796Z,55.4
2018-09-17T11:14:09.264Z,55.5
2018-09-17T11:14:59.652Z,55.6
2018-09-17T11:15:49.941Z,55.6
2018-09-17T11:16:40.011Z,55.6
2018-09-17T11:17:31.017Z,55.7
2018-09-17T11:18:20.223Z,55.7
2018-09-17T11:19:10.292Z,55.8
2018-09-17T11:20:00.292Z,55.8
2018-09-17T11:20:50.091Z,55.8
2018-09-17T11:21:40.426Z,55.9
2018-09-17T11:22:30.207Z,55.9
2018-09-17T11:23:20.686Z,56
2018-09-17T11:24:10.013Z,56
2018-09-17T11:25:00.492Z,56.1
2018-09-17T11:25:50.419Z,56.1
2018-09-17T11:26:40.816Z,56.1
2018-09-17T11:27:30.559Z,56.2
2018-09-17T11:28:20.861Z,56.2
2018-09-17T11:29:10.663Z,56.3
2018-09-17T11:30:00.745Z,56.3
2018-09-17T11:30:51.083Z,56.4
2018-09-17T11:31:40.891Z,56.4
2018-09-17T11:32:31.403Z,56.4
2018-09-17T11:33:20.604Z,56.4
2018-09-17T11:34:10.905Z,56.4
2018-09-17T11:35:01.136Z,56.5
2018-09-17T11:35:51.468Z,56.6
2018-09-17T11:36:41.563Z,56.6
2018-09-17T11:37:31.348Z,56.6
2018-09-17T11:38:21.432Z,56.6
2018-09-17T11:39:11.705Z,56.6
2018-09-17T11:40:01.497Z,56.6
2018-09-17T11:40:51.899Z,56.7
2018-09-17T11:41:41.446Z,56.7
2018-09-17T11:42:31.727Z,56.7
2018-09-17T11:43:22.329Z,56.7
2018-09-17T11:44:12.103Z,56.7
2018-09-17T11:45:01.927Z,56.7
2018-09-17T11:45:51.932Z,56.7
2018-09-17T11:46:42.278Z,56.7
2018-09-17T11:47:32.064Z,56.7
2018-09-17T11:48:22.925Z,56.7
2018-09-17T11:49:12.191Z,56.7
2018-09-17T11:50:02.553Z,56.7
2018-09-17T11:50:52.309Z,56.7
2018-09-17T11:51:42.098Z,56.7
2018-09-17T11:52:32.722Z,56.6
2018-09-17T11:53:22.502Z,56.7
2018-09-17T11:54:12.667Z,56.6
2018-09-17T11:55:02.936Z,56.6
2018-09-17T11:55:53.044Z,56.7
2018-09-17T11:56:42.749Z,56.6
2018-09-17T11:57:33.125Z,56.6
2018-09-17T11:58:23.167Z,56.6
2018-09-17T11:59:12.755Z,56.6
2018-09-17T12:00:03.295Z,56.6
2018-09-17T12:00:53.134Z,56.6
2018-09-17T12:01:44.128Z,56.6
2018-09-17T12:02:33.505Z,56.6
2018-09-17T12:03:23.563Z,56.6
2018-09-17T12:04:13.369Z,56.6
2018-09-17T12:05:03.402Z,56.6
2018-09-17T12:05:53.459Z,56.6
2018-09-17T12:06:43.814Z,56.6
2018-09-17T12:07:34.034Z,56.6
2018-09-17T12:08:23.949Z,56.6
2018-09-17T12:09:14.727Z,56.6
2018-09-17T12:10:04.083Z,56.6
2018-09-17T12:10:53.952Z,56.6
2018-09-17T12:11:44.183Z,56.6
2018-09-17T12:12:33.499Z,56.6
2018-09-17T12:13:24.326Z,56.6
2018-09-17T12:14:14.393Z,56.6
2018-09-17T12:15:03.888Z,56.6
2018-09-17T12:15:53.928Z,56.6
2018-09-17T12:16:44.080Z,56.6
2018-09-17T12:17:34.630Z,56.6
2018-09-17T12:18:24.450Z,56.6
2018-09-17T12:19:15.013Z,56.6
2018-09-17T12:20:04.835Z,56.6
2018-09-17T12:20:54.849Z,56.6
2018-09-17T12:21:44.733Z,56.5
2018-09-17T12:22:35.022Z,56.6
2018-09-17T12:23:25.088Z,56.5
2018-09-17T12:24:14.910Z,56.5
2018-09-17T12:25:05.225Z,56.5
2018-09-17T12:25:54.979Z,56.5
2018-09-17T12:26:45.055Z,56.5
2018-09-17T12:27:35.411Z,56.5
2018-09-17T12:28:24.989Z,56.6
2018-09-17T12:29:15.244Z,56.5
2018-09-17T12:30:05.584Z,56.5
2018-09-17T12:30:55.194Z,56.5
2018-09-17T12:31:45.706Z,56.5
2018-09-17T12:32:35.533Z,56.5
2018-09-17T12:33:25.846Z,56.5
2018-09-17T12:34:15.676Z,56.5
2018-09-17T12:35:05.684Z,56.5
2018-09-17T12:35:56.053Z,56.5
2018-09-17T12:36:46.123Z,56.5
2018-09-17T12:37:36.194Z,56.5
2018-09-17T12:38:25.944Z,56.5
2018-09-17T12:39:16.288Z,56.5
2018-09-17T12:40:06.353Z,56.5
2018-09-17T12:40:56.439Z,56.6
2018-09-17T12:41:46.486Z,56.6
2018-09-17T12:42:36.543Z,56.6
2018-09-17T12:43:26.868Z,56.6
2018-09-17T12:44:16.687Z,56.6
2018-09-17T12:45:06.778Z,56.6
2018-09-17T12:45:57.459Z,56.6
2018-09-17T12:46:46.852Z,56.6
2018-09-17T12:47:36.657Z,56.7
2018-09-17T12:48:26.765Z,56.7
2018-09-17T12:49:16.770Z,56.7
2018-09-17T12:50:06.838Z,56.7
2018-09-17T12:50:56.725Z,56.8
2018-09-17T12:51:47.352Z,56.8
2018-09-17T12:52:37.307Z,56.8
2018-09-17T12:53:27.617Z,56.8
2018-09-17T12:54:17.294Z,56.8
2018-09-17T12:55:07.494Z,56.8
2018-09-17T12:55:57.565Z,56.8
2018-09-17T12:56:47.197Z,56.9
2018-09-17T12:57:37.655Z,56.9
2018-09-17T12:58:27.882Z,56.9
2018-09-17T12:59:17.529Z,56.9
2018-09-17T13:00:07.886Z,56.9
2018-09-17T13:00:57.999Z,56.9
2018-09-17T13:01:47.710Z,56.9
2018-09-17T13:02:38.369Z,56.9
2018-09-17T13:03:28.630Z,56.9
2018-09-17T13:04:18.225Z,56.9
2018-09-17T13:05:08.299Z,56.9
2018-09-17T13:05:58.029Z,56.9
2018-09-17T13:06:48.439Z,56.9
2018-09-17T13:07:38.124Z,56.9
2018-09-17T13:08:28.526Z,56.9
2018-09-17T13:09:18.563Z,56.9
2018-09-17T13:10:08.642Z,56.9
2018-09-17T13:10:58.447Z,56.9
2018-09-17T13:11:48.496Z,56.9
2018-09-17T13:12:39.131Z,56.9
2018-09-17T13:13:28.902Z,56.9
2018-09-17T13:14:19.038Z,56.9
2018-09-17T13:15:08.759Z,56.9
2018-09-17T13:15:58.814Z,56.9
2018-09-17T13:16:48.888Z,56.9
2018-09-17T13:17:39.262Z,56.9
2018-09-17T13:18:29.327Z,56.9
2018-09-17T13:19:19.079Z,56.9
2018-09-17T13:20:08.863Z,56.9
2018-09-17T13:20:59.206Z,56.9
2018-09-17T13:21:49.296Z,56.9
2018-09-17T13:22:39.590Z,57
2018-09-17T13:23:29.170Z,57
2018-09-17T13:24:19.402Z,57
2018-09-17T13:25:10.384Z,57
2018-09-17T13:25:59.609Z,57
2018-09-17T13:26:49.619Z,57
2018-09-17T13:27:39.714Z,57